Time;durP1;ratioP1;P1;durP2;ratioP2;P2;SDS_P1;SDS_P2;PMS_P1;PMS_P2;Temp;Humidity;BMP_temperature;BMP_pressure;BME280_temperature;BME280_humidity;BME280_pressure;Samples;Min_cycle;Max_cycle;Signal;HPM_P1;HPM_P2
2022/04/16 00:00:57;;;;;;;5.75;2.08;;;;;;;2.34;94.77;102399.50;4977293;28;20046;-74
2022/04/16 00:03:24;;;;;;;8.02;2.50;;;;;;;2.32;95.62;102398.63;5012584;28;20053;-73
2022/04/16 00:05:53;;;;;;;6.97;2.33;;;;;;;2.29;95.84;102401.22;4993445;28;20049;-73
2022/04/16 00:08:22;;;;;;;6.20;2.17;;;;;;;2.23;95.87;102399.47;5003227;28;20088;-73
2022/04/16 00:10:51;;;;;;;9.60;2.65;;;;;;;2.18;96.34;102403.78;5006237;28;20046;-73
2022/04/16 00:13:19;;;;;;;6.63;2.40;;;;;;;2.19;96.65;102405.50;4978441;28;20054;-73
2022/04/16 00:15:49;;;;;;;8.52;3.22;;;;;;;2.16;97.01;102395.13;5003178;28;20137;-73
2022/04/16 00:18:18;;;;;;;7.88;3.10;;;;;;;2.12;97.37;102398.56;4993518;28;20050;-73
2022/04/16 00:20:48;;;;;;;8.35;2.67;;;;;;;2.09;97.77;102395.06;4980753;28;20104;-73
2022/04/16 00:23:19;;;;;;;5.82;2.53;;;;;;;2.05;98.17;102403.72;4991579;28;20076;-73
2022/04/16 00:25:49;;;;;;;7.85;3.03;;;;;;;2.01;98.52;102400.22;4975396;28;20061;-73
2022/04/16 00:28:17;;;;;;;7.35;2.28;;;;;;;1.96;98.42;102396.75;5007004;28;20131;-73
2022/04/16 00:30:44;;;;;;;6.63;2.70;;;;;;;1.92;99.33;102402.78;4984835;28;20121;-73
2022/04/16 00:33:14;;;;;;;9.63;2.60;;;;;;;1.91;99.49;102398.44;5011610;28;20054;-73
2022/04/16 00:35:42;;;;;;;6.75;2.13;;;;;;;1.86;99.89;102398.44;4987109;28;20404;-73
2022/04/16 00:38:10;;;;;;;7.93;2.50;;;;;;;1.84;99.98;102397.53;4998258;28;20046;-73
2022/04/16 00:40:37;;;;;;;4.90;2.42;;;;;;;1.85;100.00;102394.09;4974560;28;20306;-74
2022/04/16 00:43:05;;;;;;;6.60;2.22;;;;;;;1.84;100.00;102407.06;5010371;28;20089;-73
2022/04/16 00:45:33;;;;;;;6.22;2.40;;;;;;;1.87;100.00;102409.69;4975037;28;20050;-73
2022/04/16 00:48:01;;;;;;;7.50;1.75;;;;;;;1.84;100.00;102410.50;4994868;28;20488;-73
2022/04/16 00:50:28;;;;;;;7.15;2.22;;;;;;;1.85;100.00;102411.41;4990965;28;20042;-73
2022/04/16 00:52:56;;;;;;;6.13;1.92;;;;;;;1.84;100.00;102414.84;4979397;28;20220;-73
2022/04/16 00:58:53;;;;;;;9.82;2.05;;;;;;;1.77;100.00;102413.97;4995903;28;20139;-74
2022/04/16 01:01:20;;;;;;;6.18;1.80;;;;;;;1.73;100.00;102412.19;4988663;28;20053;-73
2022/04/16 01:03:48;;;;;;;10.30;2.33;;;;;;;1.71;100.00;102411.31;4982361;28;20140;-73
2022/04/16 01:06:16;;;;;;;6.63;1.67;;;;;;;1.67;100.00;102419.97;5021488;28;20388;-73
2022/04/16 01:08:47;;;;;;;7.88;1.95;;;;;;;1.63;100.00;102418.19;4975622;28;20053;-73
2022/04/16 01:11:15;;;;;;;8.80;1.92;;;;;;;1.56;100.00;102425.06;5008179;28;20536;-73
2022/04/16 01:13:47;;;;;;;9.45;2.00;;;;;;;1.54;100.00;102421.59;4962156;28;20136;-73
2022/04/16 01:16:14;;;;;;;5.75;2.03;;;;;;;1.56;100.00;102424.19;4978965;28;20116;-73
2022/04/16 01:18:47;;;;;;;5.88;2.20;;;;;;;1.55;100.00;102425.91;4968829;28;20045;-74
2022/04/16 01:21:14;;;;;;;4.38;1.67;;;;;;;1.55;100.00;102430.25;4989017;28;20169;-74
2022/04/16 01:23:42;;;;;;;6.97;2.30;;;;;;;1.56;100.00;102429.38;4993456;28;20484;-74
2022/04/16 01:26:09;;;;;;;8.15;2.53;;;;;;;1.54;100.00;102439.75;4997914;28;20105;-74
2022/04/16 01:28:36;;;;;;;7.80;1.98;;;;;;;1.48;100.00;102440.56;5014723;28;20508;-74
2022/04/16 01:31:03;;;;;;;9.40;2.42;;;;;;;1.48;100.00;102437.97;4988969;28;20050;-74
2022/04/16 01:33:30;;;;;;;5.70;2.22;;;;;;;1.46;100.00;102441.44;5011527;28;20358;-72
2022/04/16 01:35:58;;;;;;;8.15;2.28;;;;;;;1.42;100.00;102437.06;5003692;28;20050;-73
2022/04/16 01:38:25;;;;;;;5.97;1.95;;;;;;;1.41;100.00;102435.34;4991600;28;20053;-73
2022/04/16 01:40:56;;;;;;;6.28;1.80;;;;;;;1.43;100.00;102434.47;5006263;28;20073;-73
2022/04/16 01:43:24;;;;;;;4.53;1.65;;;;;;;1.48;100.00;102429.31;4993166;28;20129;-73
2022/04/16 01:45:51;;;;;;;8.70;2.42;;;;;;;1.43;100.00;102439.66;4971668;28;20556;-73
2022/04/16 01:48:21;;;;;;;5.65;1.75;;;;;;;1.40;100.00;102429.28;4976392;28;20050;-74
2022/04/16 01:50:51;;;;;;;8.20;1.95;;;;;;;1.41;100.00;102438.78;5004585;28;20058;-73
2022/04/16 01:53:18;;;;;;;7.15;2.03;;;;;;;1.39;100.00;102437.03;5042127;23;20055;-65
2022/04/16 01:55:45;;;;;;;9.68;2.08;;;;;;;1.35;100.00;102443.03;5065797;28;20067;-65
2022/04/16 01:58:13;;;;;;;5.22;1.33;;;;;;;1.37;100.00;102441.34;5061500;28;20489;-66
2022/04/16 02:00:40;;;;;;;4.95;1.50;;;;;;;1.36;100.00;102437.03;5057932;28;20040;-62
2022/04/16 02:03:08;;;;;;;6.93;1.67;;;;;;;1.34;100.00;102431.81;5059453;28;20055;-66
2022/04/16 02:05:35;;;;;;;9.05;1.88;;;;;;;1.35;100.00;102438.75;5079556;22;20050;-65
2022/04/16 02:08:03;;;;;;;6.93;1.65;;;;;;;1.32;100.00;102443.91;5043334;28;20057;-64
2022/04/16 02:10:30;;;;;;;6.68;1.70;;;;;;;1.32;100.00;102438.72;5043405;28;20094;-64
2022/04/16 02:12:57;;;;;;;7.85;1.63;;;;;;;1.37;100.00;102444.81;5046876;28;20052;-64
2022/04/16 02:15:24;;;;;;;6.22;1.75;;;;;;;1.33;100.00;102455.16;5028370;28;20052;-64
2022/04/16 02:17:53;;;;;;;7.45;2.30;;;;;;;1.32;100.00;102448.22;5044715;28;20049;-63
2022/04/16 02:20:21;;;;;;;5.07;1.58;;;;;;;1.29;100.00;102450.78;5049702;28;20051;-65
2022/04/16 02:22:49;;;;;;;2.85;1.60;;;;;;;1.25;100.00;102455.06;5046541;28;20453;-64
2022/04/16 02:25:17;;;;;;;7.55;1.75;;;;;;;1.24;100.00;102454.22;5039558;28;20057;-64
2022/04/16 02:27:44;;;;;;;4.00;1.38;;;;;;;1.26;100.00;102454.22;5045446;28;20591;-64
2022/04/16 02:30:13;;;;;;;6.55;2.00;;;;;;;1.27;100.00;102463.75;5045928;28;20292;-64
2022/04/16 02:32:43;;;;;;;6.18;1.60;;;;;;;1.34;100.00;102462.94;5044691;28;20477;-64
2022/04/16 02:35:13;;;;;;;6.72;1.77;;;;;;;1.36;100.00;102461.25;5040244;28;20040;-64
2022/04/16 02:37:40;;;;;;;3.67;1.30;;;;;;;1.39;100.00;102466.44;5050246;28;20057;-64
2022/04/16 02:40:08;;;;;;;6.72;1.83;;;;;;;1.37;100.00;102468.16;5052758;28;20047;-64
2022/04/16 02:42:36;;;;;;;5.53;1.65;;;;;;;1.38;100.00;102469.91;5051763;28;20053;-64
2022/04/16 02:47:51;;;;;;;7.05;2.33;;;;;;;1.38;100.00;102469.03;5054027;28;20082;-64
2022/04/16 02:50:19;;;;;;;9.60;1.80;;;;;;;1.36;100.00;102475.94;5045044;28;20053;-64
2022/04/16 02:52:46;;;;;;;5.57;2.42;;;;;;;1.37;100.00;102475.94;5046177;28;20132;-64
2022/04/16 02:55:15;;;;;;;10.55;1.95;;;;;;;1.43;100.00;102483.78;5045683;28;20569;-64
2022/04/16 02:57:45;;;;;;;6.88;2.40;;;;;;;1.48;100.00;102486.41;5025462;28;20575;-63
2022/04/16 03:00:14;;;;;;;4.97;1.70;;;;;;;1.52;100.00;102489.03;5049679;28;20052;-64
2022/04/16 03:02:41;;;;;;;3.65;1.60;;;;;;;1.57;100.00;102486.50;5050324;28;20524;-64
2022/04/16 03:05:08;;;;;;;9.82;1.70;;;;;;;1.64;100.00;102484.81;5045403;28;20059;-64
2022/04/16 03:07:36;;;;;;;5.32;1.67;;;;;;;1.70;100.00;102482.25;5051521;28;20052;-64
2022/04/16 03:10:05;;;;;;;4.85;1.85;;;;;;;1.66;100.00;102481.38;5042032;28;20045;-64
2022/04/16 03:12:45;;;;;;;3.67;1.98;;;;;;;1.67;100.00;102490.06;5044915;28;20041;-63
2022/04/16 03:18:00;;;;;;;8.50;1.73;;;;;;;1.64;100.00;102503.00;5042851;28;20428;-63
2022/04/16 03:20:29;;;;;;;6.10;1.70;;;;;;;1.61;100.00;102506.44;5032828;28;20049;-64
2022/04/16 03:22:57;;;;;;;5.72;1.73;;;;;;;1.58;100.00;102511.63;5042300;28;20041;-63
2022/04/16 03:25:25;;;;;;;7.68;1.88;;;;;;;1.59;100.00;102517.66;5029013;28;20052;-63
2022/04/16 03:27:52;;;;;;;4.22;1.63;;;;;;;1.63;100.00;102517.72;5045714;28;20132;-62
2022/04/16 03:30:20;;;;;;;6.18;1.63;;;;;;;1.67;100.00;102522.06;5045164;28;20049;-63
2022/04/16 03:32:49;;;;;;;8.57;1.90;;;;;;;1.71;100.00;102525.53;5055116;28;20064;-64
2022/04/16 03:35:20;;;;;;;3.72;1.60;;;;;;;1.70;100.00;102527.28;5042005;28;20071;-63
2022/04/16 03:37:48;;;;;;;7.88;1.58;;;;;;;1.69;100.00;102533.31;5047837;28;20075;-63
2022/04/16 03:40:15;;;;;;;6.18;1.88;;;;;;;1.69;100.00;102532.47;5045683;28;20203;-64
2022/04/16 03:42:49;;;;;;;6.20;1.65;;;;;;;1.67;100.00;102537.66;5040322;28;20053;-64
2022/04/16 03:45:18;;;;;;;8.38;1.98;;;;;;;1.71;100.00;102535.91;5045242;28;20461;-63
2022/04/16 03:47:46;;;;;;;9.25;1.80;;;;;;;1.70;100.00;102539.38;5043334;28;20489;-64
2022/04/16 03:50:14;;;;;;;5.57;1.77;;;;;;;1.74;100.00;102542.00;5026840;28;20096;-64
2022/04/16 03:52:42;;;;;;;5.78;1.70;;;;;;;1.76;100.00;102537.72;5043727;28;20041;-64
2022/04/16 04:00:45;;;;;;;6.05;1.95;;;;;;;1.88;100.00;102549.06;5043548;28;20488;-64
2022/04/16 04:03:13;;;;;;;9.13;2.00;;;;;;;1.86;100.00;102546.44;5040677;28;20484;-63
2022/04/16 04:05:41;;;;;;;4.63;1.60;;;;;;;1.86;100.00;102548.19;5043447;28;20049;-64
2022/04/16 04:08:09;;;;;;;5.05;2.10;;;;;;;1.92;100.00;102553.41;5038362;28;20087;-63
2022/04/16 04:10:36;;;;;;;8.38;2.22;;;;;;;1.98;100.00;102556.03;5043626;28;20056;-66
2022/04/16 04:13:04;;;;;;;3.80;1.75;;;;;;;1.97;100.00;102567.31;5046499;28;20060;-63
2022/04/16 04:15:31;;;;;;;5.20;1.80;;;;;;;1.98;100.00;102566.44;5020470;28;20050;-64
2022/04/16 04:17:59;;;;;;;9.07;1.83;;;;;;;1.98;100.00;102572.53;5043053;28;20057;-62
2022/04/16 04:20:27;;;;;;;7.20;2.03;;;;;;;1.98;100.00;102572.53;5030661;28;20061;-62
2022/04/16 04:22:55;;;;;;;7.35;1.52;;;;;;;2.00;100.00;102568.19;5026359;28;20358;-63
2022/04/16 04:25:22;;;;;;;6.28;1.65;;;;;;;2.03;100.00;102581.22;5045684;28;20134;-64
2022/04/16 04:27:49;;;;;;;3.08;1.52;;;;;;;2.09;100.00;102584.72;5031277;28;20369;-63
2022/04/16 04:30:16;;;;;;;7.60;1.73;;;;;;;2.15;100.00;102585.63;5048442;28;20061;-64
2022/04/16 04:32:43;;;;;;;7.20;1.70;;;;;;;2.20;100.00;102588.25;5046236;28;20056;-63
2022/04/16 04:35:11;;;;;;;4.45;1.38;;;;;;;2.22;100.00;102592.63;5020467;28;20527;-63
2022/04/16 04:37:38;;;;;;;5.22;1.63;;;;;;;2.25;100.00;102591.75;5044595;28;20060;-65
2022/04/16 04:40:05;;;;;;;8.05;2.15;;;;;;;2.31;100.00;102594.41;5048856;28;20777;-64
2022/04/16 04:42:34;;;;;;;6.55;2.50;;;;;;;2.38;100.00;102587.50;5048773;28;20055;-63
2022/04/16 04:45:08;;;;;;;5.45;1.58;;;;;;;2.42;100.00;102590.13;5048900;28;20064;-65
2022/04/16 04:47:36;;;;;;;6.32;1.60;;;;;;;2.46;100.00;102593.63;5047971;28;20049;-64
2022/04/16 04:50:04;;;;;;;4.82;1.88;;;;;;;2.50;100.00;102600.59;5048087;28;20057;-62
2022/04/16 04:52:31;;;;;;;7.85;2.40;;;;;;;2.53;100.00;102596.28;5048742;28;20053;-64
2022/04/16 04:54:59;;;;;;;3.53;1.60;;;;;;;2.51;100.00;102600.59;5047306;28;20049;-63
2022/04/16 04:57:27;;;;;;;3.40;2.05;;;;;;;2.46;100.00;102596.22;5014569;28;20142;-62
2022/04/16 04:59:54;;;;;;;7.43;1.70;;;;;;;2.51;100.00;102602.31;5044678;28;20053;-63
2022/04/16 05:02:21;;;;;;;10.00;1.67;;;;;;;2.57;100.00;102606.69;5030208;28;20053;-64
2022/04/16 05:04:48;;;;;;;4.20;1.55;;;;;;;2.60;100.00;102604.13;5046897;28;20076;-63
2022/04/16 05:07:15;;;;;;;5.72;1.70;;;;;;;2.63;100.00;102609.34;5044135;28;20057;-64
2022/04/16 05:09:43;;;;;;;5.75;1.67;;;;;;;2.74;100.00;102613.72;5045097;28;20072;-63
2022/04/16 05:12:10;;;;;;;6.88;1.63;;;;;;;2.82;100.00;102615.50;5036887;28;20046;-63
2022/04/16 05:14:37;;;;;;;7.82;2.35;;;;;;;2.88;100.00;102616.41;5027751;28;20524;-63
2022/04/16 05:17:04;;;;;;;4.95;2.00;;;;;;;2.88;100.00;102619.03;5047173;28;20389;-62
2022/04/16 05:19:31;;;;;;;3.20;1.50;;;;;;;2.98;100.00;102614.72;5046406;28;20056;-63
2022/04/16 05:21:58;;;;;;;3.50;1.65;;;;;;;3.12;100.00;102615.66;5048358;28;20060;-63
2022/04/16 05:24:25;;;;;;;4.05;2.40;;;;;;;3.11;100.00;102626.03;5045844;28;20049;-65
2022/04/16 05:26:53;;;;;;;3.80;1.85;;;;;;;3.19;99.97;102632.13;5047764;28;20072;-63
2022/04/16 05:29:20;;;;;;;4.95;1.80;;;;;;;3.12;99.63;102638.19;5053986;28;20047;-63
2022/04/16 05:31:47;;;;;;;2.63;1.67;;;;;;;3.23;99.38;102642.56;5046677;28;20470;-63
2022/04/16 05:34:20;;;;;;;4.22;1.63;;;;;;;3.35;99.50;102649.56;5045276;28;20057;-63
2022/04/16 05:36:50;;;;;;;4.05;1.77;;;;;;;3.52;98.99;102652.22;5047360;28;20079;-63
2022/04/16 05:39:17;;;;;;;5.97;2.05;;;;;;;3.51;97.91;102653.06;5041081;28;20049;-63
2022/04/16 05:41:45;;;;;;;6.88;1.90;;;;;;;3.53;98.02;102660.03;5042672;28;20576;-64
2022/04/16 05:44:12;;;;;;;3.10;1.60;;;;;;;3.58;97.12;102660.03;5030658;28;20628;-64
2022/04/16 05:46:40;;;;;;;5.57;1.92;;;;;;;3.67;96.75;102662.66;5028377;28;20148;-63
2022/04/16 05:49:07;;;;;;;7.57;2.05;;;;;;;3.83;96.17;102668.81;5047506;28;20128;-63
2022/04/16 05:51:35;;;;;;;5.00;2.03;;;;;;;3.96;96.04;102665.34;5051762;28;20059;-63
2022/04/16 05:54:03;;;;;;;5.28;1.65;;;;;;;4.11;95.72;102666.22;5049038;28;20049;-63
2022/04/16 05:56:30;;;;;;;4.68;1.85;;;;;;;4.22;94.09;102662.72;5050684;28;20055;-63
2022/04/16 05:58:59;;;;;;;5.72;1.42;;;;;;;4.24;94.22;102663.63;5028296;28;20061;-63
2022/04/16 06:01:27;;;;;;;6.25;1.90;;;;;;;4.26;93.12;102664.47;5047665;28;20105;-63
2022/04/16 06:03:54;;;;;;;3.85;1.40;;;;;;;4.30;92.65;102673.16;5027255;28;20057;-63
2022/04/16 06:06:21;;;;;;;4.10;1.50;;;;;;;4.38;92.53;102674.03;5051831;28;20151;-63
2022/04/16 06:08:48;;;;;;;5.88;1.73;;;;;;;4.58;92.46;102666.19;5046854;28;20063;-63
2022/04/16 06:11:18;;;;;;;7.25;1.55;;;;;;;4.69;91.04;102658.38;5039739;28;20056;-63
2022/04/16 06:13:45;;;;;;;4.75;1.67;;;;;;;4.72;90.81;102664.41;5045326;28;20140;-62
2022/04/16 06:16:12;;;;;;;5.55;1.85;;;;;;;4.75;89.75;102660.94;5047136;28;20045;-62
2022/04/16 06:18:40;;;;;;;4.07;1.70;;;;;;;4.68;90.28;102659.22;5047183;28;20068;-63
2022/04/16 06:21:07;;;;;;;4.53;1.92;;;;;;;4.85;89.76;102657.44;5045459;28;20060;-64
2022/04/16 06:23:34;;;;;;;3.92;1.80;;;;;;;5.06;88.60;102667.81;5047143;28;20051;-64
2022/04/16 06:26:01;;;;;;;4.38;1.85;;;;;;;5.05;88.65;102665.22;5046920;28;20053;-62
2022/04/16 06:28:28;;;;;;;5.95;2.08;;;;;;;5.14;87.69;102664.31;5045981;28;20100;-63
2022/04/16 06:30:55;;;;;;;9.43;2.20;;;;;;;5.27;87.52;102663.41;5046623;28;20115;-63
2022/04/16 06:33:22;;;;;;;3.13;1.88;;;;;;;5.37;86.43;102670.31;5047564;28;20048;-63
2022/04/16 06:35:50;;;;;;;5.97;2.70;;;;;;;5.46;86.80;102664.19;5034769;28;20048;-63
2022/04/16 06:38:17;;;;;;;12.23;2.33;;;;;;;5.64;85.67;102665.81;5022834;28;20046;-64
2022/04/16 06:40:44;;;;;;;2.72;1.83;;;;;;;5.80;83.52;102678.78;5045712;28;20100;-64
2022/04/16 06:43:11;;;;;;;7.68;1.90;;;;;;;6.10;82.08;102669.03;5047070;28;20401;-64
2022/04/16 06:45:38;;;;;;;5.40;1.60;;;;;;;6.13;80.96;102668.16;5049702;28;20053;-63
2022/04/16 06:48:06;;;;;;;4.55;1.70;;;;;;;6.14;80.39;102672.50;5047624;28;20051;-64
2022/04/16 06:50:33;;;;;;;4.68;1.52;;;;;;;6.20;80.52;102673.28;5045930;28;20056;-63
2022/04/16 06:53:00;;;;;;;6.75;1.85;;;;;;;6.29;77.61;102674.97;5047617;28;20045;-62
2022/04/16 06:55:27;;;;;;;5.43;1.98;;;;;;;6.35;76.86;102682.78;5045256;28;20508;-63
2022/04/16 06:57:54;;;;;;;6.53;1.40;;;;;;;6.61;77.53;102679.91;5047571;28;20052;-63
2022/04/16 07:00:21;;;;;;;7.05;1.63;;;;;;;6.72;76.38;102680.69;5046741;28;20049;-63
2022/04/16 07:02:48;;;;;;;4.28;2.03;;;;;;;6.81;75.81;102692.81;5043243;28;20064;-62
2022/04/16 07:05:16;;;;;;;7.18;2.17;;;;;;;6.88;75.52;102681.38;5046059;28;20059;-63
2022/04/16 07:07:43;;;;;;;4.40;2.30;;;;;;;6.82;74.81;102694.56;5046838;28;20059;-63
2022/04/16 07:10:11;;;;;;;6.13;2.97;;;;;;;6.68;75.23;102683.34;5027618;28;20079;-63
2022/04/16 07:12:38;;;;;;;7.05;4.13;;;;;;;6.87;73.97;102682.28;5046273;28;20532;-61
2022/04/16 07:15:06;;;;;;;7.40;4.50;;;;;;;7.02;73.88;102684.72;5043830;28;20060;-64
2022/04/16 07:17:33;;;;;;;8.85;4.80;;;;;;;7.10;73.14;102690.75;5045394;28;20478;-62
2022/04/16 07:20:00;;;;;;;7.57;4.45;;;;;;;7.19;72.79;102691.53;5046331;28;20052;-62
2022/04/16 07:22:27;;;;;;;10.57;5.25;;;;;;;7.19;72.48;102687.16;5046302;28;20159;-65
2022/04/16 07:24:54;;;;;;;8.00;5.15;;;;;;;7.39;72.54;102686.06;5044178;28;20115;-65
2022/04/16 07:27:21;;;;;;;7.60;5.43;;;;;;;7.58;72.16;102693.66;5046500;28;20056;-64
2022/04/16 07:29:51;;;;;;;7.00;4.13;;;;;;;7.55;71.54;102696.31;5045691;28;20060;-63
2022/04/16 07:32:18;;;;;;;6.20;3.92;;;;;;;7.48;71.61;102688.56;5045124;28;20136;-63
2022/04/16 07:34:45;;;;;;;5.10;3.80;;;;;;;7.27;72.08;102692.31;5048251;28;20583;-63
2022/04/16 07:37:12;;;;;;;7.07;3.67;;;;;;;7.38;71.85;102698.25;5043513;28;20045;-62
2022/04/16 07:39:40;;;;;;;4.55;3.22;;;;;;;7.51;70.92;102699.84;5044933;28;20057;-63
2022/04/16 07:42:07;;;;;;;6.47;2.83;;;;;;;7.36;71.22;102706.16;5046141;28;20049;-64
2022/04/16 07:44:35;;;;;;;4.80;2.40;;;;;;;7.56;71.15;102705.03;5027382;28;20051;-64
2022/04/16 07:47:02;;;;;;;3.67;1.92;;;;;;;7.77;70.26;102706.50;5039498;28;20053;-63
2022/04/16 07:49:29;;;;;;;3.75;2.03;;;;;;;7.84;69.99;102701.16;5047662;28;20472;-64
2022/04/16 07:51:56;;;;;;;5.50;2.17;;;;;;;7.95;69.99;102705.38;5050192;28;20083;-64
2022/04/16 07:54:23;;;;;;;4.22;1.70;;;;;;;8.10;68.52;102707.75;5048922;28;20056;-63
2022/04/16 07:56:50;;;;;;;7.15;1.70;;;;;;;8.18;68.49;102700.63;5053502;28;20077;-62
2022/04/16 07:59:17;;;;;;;2.15;1.10;;;;;;;7.95;67.68;102701.00;5032948;28;20045;-63
2022/04/16 08:01:44;;;;;;;4.38;1.38;;;;;;;7.91;67.91;102709.78;5050568;28;20068;-62
2022/04/16 08:04:12;;;;;;;1.83;1.08;;;;;;;8.04;67.46;102713.09;5048863;28;20048;-64
2022/04/16 08:06:39;;;;;;;3.70;1.27;;;;;;;8.16;68.06;102714.69;5032263;28;20535;-65
2022/04/16 08:09:06;;;;;;;5.57;1.58;;;;;;;8.30;67.46;102713.56;5048498;28;20045;-63
2022/04/16 08:11:33;;;;;;;2.95;1.15;;;;;;;8.29;65.72;102717.09;5049666;28;20063;-65
2022/04/16 08:14:00;;;;;;;2.70;1.08;;;;;;;8.48;65.91;102714.19;5044970;28;20055;-64
2022/04/16 08:16:27;;;;;;;3.47;1.30;;;;;;;8.61;64.56;102720.97;5049750;28;20126;-64
2022/04/16 08:18:57;;;;;;;3.58;1.05;;;;;;;8.65;63.56;102717.41;5056413;28;20071;-64
2022/04/16 08:21:26;;;;;;;1.85;0.85;;;;;;;8.59;63.59;102715.72;5028905;28;20520;-64
2022/04/16 08:24:03;;;;;;;5.28;1.42;;;;;;;8.61;63.85;102713.09;5048580;28;20508;-64
2022/04/16 08:26:31;;;;;;;3.50;1.45;;;;;;;8.85;63.50;102719.66;5049564;28;20155;-65
2022/04/16 08:28:58;;;;;;;3.92;1.25;;;;;;;9.08;62.98;102719.22;5048375;28;20080;-63
2022/04/16 08:31:26;;;;;;;3.13;2.03;;;;;;;9.29;62.11;102702.19;5049581;28;20057;-65
2022/04/16 08:33:53;;;;;;;2.53;1.02;;;;;;;9.46;60.24;102702.72;5048877;28;20051;-65
2022/04/16 08:36:20;;;;;;;1.98;0.98;;;;;;;9.53;59.42;102708.69;5042829;28;20073;-65
2022/04/16 08:38:47;;;;;;;4.47;1.30;;;;;;;9.69;59.22;102702.22;5044741;28;20057;-65
2022/04/16 08:41:14;;;;;;;2.67;1.23;;;;;;;9.57;55.15;102705.09;5050056;28;20045;-65
2022/04/16 08:43:42;;;;;;;2.33;0.98;;;;;;;9.72;55.39;102703.88;5047801;28;20079;-65
2022/04/16 08:46:09;;;;;;;2.60;1.30;;;;;;;9.74;54.44;102708.22;5031247;28;20083;-65
2022/04/16 08:48:39;;;;;;;1.77;0.90;;;;;;;9.86;53.91;102712.34;5046514;28;20302;-65
2022/04/16 08:51:06;;;;;;;2.53;0.90;;;;;;;9.89;54.12;102713.13;5055954;28;20041;-66
2022/04/16 08:53:33;;;;;;;1.95;0.90;;;;;;;9.92;53.98;102712.22;5049011;28;20111;-64
2022/04/16 08:56:00;;;;;;;2.55;0.93;;;;;;;9.86;52.69;102718.50;5046085;28;20316;-66
2022/04/16 08:58:31;;;;;;;5.05;0.80;;;;;;;9.99;51.17;102712.91;5048013;28;20513;-65
2022/04/16 09:00:59;;;;;;;3.13;0.98;;;;;;;10.14;51.22;102716.06;5048243;28;20059;-65
2022/04/16 09:03:36;;;;;;;4.05;1.17;;;;;;;10.18;49.87;102713.34;5049151;28;20053;-65
2022/04/16 09:06:04;;;;;;;3.40;1.45;;;;;;;10.25;49.59;102707.94;5046679;28;20053;-65
2022/04/16 09:08:32;;;;;;;1.80;1.00;;;;;;;10.11;50.00;102708.25;5051197;28;20513;-65
2022/04/16 09:11:11;;;;;;;2.47;1.27;;;;;;;10.25;50.54;102701.81;5029841;28;20049;-64
2022/04/16 09:13:51;;;;;;;4.00;1.05;;;;;;;10.28;50.34;102713.16;5047568;28;20114;-64
2022/04/16 09:16:19;;;;;;;5.25;1.92;;;;;;;10.35;49.55;102716.47;5030002;28;20068;-65
2022/04/16 09:18:50;;;;;;;2.85;1.30;;;;;;;10.44;48.73;102720.66;5048448;28;20049;-65
2022/04/16 09:21:24;;;;;;;1.88;0.90;;;;;;;10.44;49.64;102716.25;5047400;28;20064;-65
2022/04/16 09:23:58;;;;;;;4.50;0.90;;;;;;;10.70;50.50;102717.38;5046754;28;20045;-65
2022/04/16 09:26:31;;;;;;;2.97;1.30;;;;;;;10.73;48.34;102712.03;5049198;28;20052;-65
2022/04/16 09:29:09;;;;;;;1.77;0.98;;;;;;;10.67;48.47;102713.03;5047650;28;20057;-65
2022/04/16 09:31:40;;;;;;;1.17;0.90;;;;;;;10.86;47.92;102710.78;5043243;28;20064;-65
2022/04/16 09:34:16;;;;;;;2.45;1.17;;;;;;;10.97;48.94;102707.84;5047391;28;20396;-65
2022/04/16 09:36:46;;;;;;;1.42;0.90;;;;;;;11.17;48.89;102708.19;5049239;28;20389;-64
2022/04/16 09:39:13;;;;;;;1.40;0.73;;;;;;;11.16;46.14;102709.06;5046405;28;20075;-65
2022/04/16 09:41:42;;;;;;;2.53;1.10;;;;;;;11.29;47.49;102701.69;5048829;28;20049;-64
2022/04/16 09:44:28;;;;;;;3.53;1.08;;;;;;;11.35;48.00;102701.53;5047696;28;20385;-64
2022/04/16 09:46:55;;;;;;;2.80;1.10;;;;;;;11.23;46.17;102693.97;5042911;28;20049;-63
2022/04/16 09:49:24;;;;;;;3.10;1.15;;;;;;;11.39;47.83;102698.75;5025495;28;20531;-64
2022/04/16 09:51:51;;;;;;;3.78;1.30;;;;;;;11.57;48.62;102697.34;5030632;28;20049;-65
2022/04/16 09:54:21;;;;;;;2.72;1.00;;;;;;;11.60;47.36;102705.16;5044183;28;20049;-64
2022/04/16 09:56:48;;;;;;;2.65;1.23;;;;;;;11.32;45.42;102701.59;5029936;28;20053;-64
2022/04/16 09:59:16;;;;;;;2.80;0.90;;;;;;;11.06;47.65;102697.91;5047744;28;20044;-65
2022/04/16 10:01:49;;;;;;;2.20;0.90;;;;;;;11.07;47.32;102712.81;5028318;28;20300;-65
2022/04/16 10:04:18;;;;;;;4.15;1.50;;;;;;;11.29;46.45;102704.31;5044413;28;20208;-65
2022/04/16 10:06:48;;;;;;;3.15;1.17;;;;;;;11.37;46.51;102712.88;5047621;28;20063;-65
2022/04/16 10:09:22;;;;;;;2.97;1.40;;;;;;;11.44;46.26;102717.06;5029513;28;20045;-66
2022/04/16 10:14:54;;;;;;;4.15;1.45;;;;;;;11.71;46.22;102718.03;5032798;28;20120;-65
2022/04/16 10:17:28;;;;;;;1.73;1.10;;;;;;;12.05;46.18;102715.22;5012685;28;20068;-65
2022/04/16 10:20:07;;;;;;;2.03;1.27;;;;;;;12.27;46.13;102715.41;5046814;28;20044;-66
2022/04/16 10:22:34;;;;;;;2.78;1.15;;;;;;;12.32;46.68;102708.19;5048248;28;20532;-65
2022/04/16 10:25:02;;;;;;;3.53;1.25;;;;;;;12.54;45.77;102707.47;5046515;28;20049;-65
2022/04/16 10:27:31;;;;;;;4.22;1.30;;;;;;;12.80;46.66;102707.44;5047749;28;20049;-65
2022/04/16 10:29:59;;;;;;;2.30;1.10;;;;;;;12.81;43.33;102721.53;5047158;28;20453;-65
2022/04/16 10:32:40;;;;;;;1.38;0.90;;;;;;;12.87;42.32;102710.72;5042447;28;20417;-65
2022/04/16 10:35:13;;;;;;;1.95;1.20;;;;;;;13.15;43.91;102707.97;5046519;28;20590;-65
2022/04/16 10:37:43;;;;;;;4.65;1.48;;;;;;;13.06;41.23;102708.31;5045502;28;20051;-65
2022/04/16 10:40:16;;;;;;;2.60;1.00;;;;;;;13.15;41.75;102710.63;5047531;28;20136;-65
2022/04/16 10:42:50;;;;;;;4.28;2.05;;;;;;;13.26;41.89;102700.53;5028571;28;20068;-66
2022/04/16 10:45:20;;;;;;;2.92;1.10;;;;;;;13.36;41.32;102701.91;5046081;28;20057;-66
2022/04/16 10:47:50;;;;;;;4.65;1.30;;;;;;;13.31;42.15;102701.22;5046494;28;20148;-65
2022/04/16 10:50:19;;;;;;;1.58;0.85;;;;;;;13.50;42.44;102705.81;5044420;28;20068;-66
2022/04/16 10:53:01;;;;;;;1.75;0.90;;;;;;;13.50;39.90;102697.88;5046905;28;20060;-65
2022/04/16 10:55:32;;;;;;;2.05;0.70;;;;;;;13.68;40.25;102690.09;5027488;28;20646;-66
2022/04/16 10:58:03;;;;;;;3.42;0.95;;;;;;;13.97;41.12;102703.97;5040424;28;20424;-65
2022/04/16 11:00:41;;;;;;;2.25;0.80;;;;;;;13.85;39.64;102696.50;5045324;28;20056;-65
2022/04/16 11:03:13;;;;;;;2.03;1.13;;;;;;;14.04;40.66;102694.84;5044102;28;20562;-66
2022/04/16 11:05:41;;;;;;;3.08;0.80;;;;;;;14.19;40.32;102699.53;5044065;28;20059;-65
2022/04/16 11:08:14;;;;;;;5.93;0.93;;;;;;;13.71;38.05;102694.41;5048011;28;20413;-65
2022/04/16 11:10:41;;;;;;;2.42;1.15;;;;;;;13.68;38.99;102694.50;5044427;28;20128;-65
2022/04/16 11:13:10;;;;;;;3.58;1.10;;;;;;;13.83;38.64;102691.28;5047088;28;20102;-67
2022/04/16 11:15:37;;;;;;;1.95;1.00;;;;;;;14.06;38.17;102690.34;5040473;28;20049;-66
2022/04/16 11:18:04;;;;;;;2.78;0.90;;;;;;;14.31;39.94;102690.19;5047769;28;20444;-66
2022/04/16 11:20:31;;;;;;;2.63;1.17;;;;;;;14.61;38.19;102705.78;5045086;28;20049;-66
2022/04/16 11:22:58;;;;;;;1.58;0.90;;;;;;;14.71;37.22;102699.13;5045048;28;20067;-66
2022/04/16 11:34:14;;;;;;;1.88;0.95;;;;;;;14.83;36.34;102700.41;5053338;28;20056;-66
2022/04/16 11:36:32;;;;;;;1.52;0.70;;;;;;;15.33;37.35;102686.66;5056006;28;20044;-66
2022/04/16 11:38:59;;;;;;;2.20;0.80;;;;;;;15.45;36.09;102692.28;5046333;28;20574;-66
2022/04/16 11:41:28;;;;;;;1.27;0.65;;;;;;;15.70;36.10;102688.47;5032572;28;20045;-66
2022/04/16 11:43:55;;;;;;;2.03;0.80;;;;;;;15.66;35.85;102697.53;5050627;28;20053;-66
2022/04/16 11:46:23;;;;;;;2.47;0.70;;;;;;;15.93;36.93;102685.56;5049713;28;20056;-65
2022/04/16 11:48:51;;;;;;;2.40;1.00;;;;;;;15.99;36.48;102681.78;5052273;28;20223;-65
2022/04/16 11:51:19;;;;;;;2.17;1.00;;;;;;;15.99;35.50;102683.56;5046815;28;20056;-66
2022/04/16 11:53:50;;;;;;;2.97;0.90;;;;;;;16.03;34.83;102687.78;5049386;28;20059;-66
2022/04/16 11:56:20;;;;;;;1.88;0.85;;;;;;;16.22;35.81;102687.75;5045354;28;20399;-66
2022/04/16 11:58:51;;;;;;;0.93;0.70;;;;;;;16.70;35.70;102676.38;5031486;28;20444;-66
2022/04/16 12:01:22;;;;;;;1.73;0.80;;;;;;;16.71;33.61;102683.44;5050677;28;20061;-66